sensor_id;sensor_type;location;lat;lon;timestamp;temperature;humidity
22765;DHT22;11549;50.852;3.816;2023-06-24T00:00:16;18.60;99.90
22765;DHT22;11549;50.852;3.816;2023-06-24T00:02:45;18.60;99.90
22765;DHT22;11549;50.852;3.816;2023-06-24T00:05:15;18.50;99.90
22765;DHT22;11549;50.852;3.816;2023-06-24T00:07:44;18.50;99.90
22765;DHT22;11549;50.852;3.816;2023-06-24T00:10:13;18.40;99.90
22765;DHT22;11549;50.852;3.816;2023-06-24T00:12:58;18.30;99.90
22765;DHT22;11549;50.852;3.816;2023-06-24T00:15:28;18.30;99.90
22765;DHT22;11549;50.852;3.816;2023-06-24T00:17:56;18.30;99.90
22765;DHT22;11549;50.852;3.816;2023-06-24T00:20:34;18.30;99.90
22765;DHT22;11549;50.852;3.816;2023-06-24T00:23:03;18.30;99.90
22765;DHT22;11549;50.852;3.816;2023-06-24T00:25:31;18.20;99.90
22765;DHT22;11549;50.852;3.816;2023-06-24T00:28:00;18.20;99.90
22765;DHT22;11549;50.852;3.816;2023-06-24T00:30:28;18.20;99.90
22765;DHT22;11549;50.852;3.816;2023-06-24T00:32:57;18.10;99.90
22765;DHT22;11549;50.852;3.816;2023-06-24T00:35:26;18.10;99.90
22765;DHT22;11549;50.852;3.816;2023-06-24T00:37:55;18.10;99.90
22765;DHT22;11549;50.852;3.816;2023-06-24T00:40:25;18.10;99.90
22765;DHT22;11549;50.852;3.816;2023-06-24T00:42:54;18.00;99.90
22765;DHT22;11549;50.852;3.816;2023-06-24T00:45:22;18.00;99.90
22765;DHT22;11549;50.852;3.816;2023-06-24T00:47:51;17.90;99.90
22765;DHT22;11549;50.852;3.816;2023-06-24T00:50:22;17.90;99.90
22765;DHT22;11549;50.852;3.816;2023-06-24T00:52:50;17.80;99.90
22765;DHT22;11549;50.852;3.816;2023-06-24T00:55:20;17.90;99.90
22765;DHT22;11549;50.852;3.816;2023-06-24T00:57:51;17.90;99.90
22765;DHT22;11549;50.852;3.816;2023-06-24T01:00:21;17.80;99.90
22765;DHT22;11549;50.852;3.816;2023-06-24T01:02:50;17.70;99.90
22765;DHT22;11549;50.852;3.816;2023-06-24T01:05:19;17.70;99.90
22765;DHT22;11549;50.852;3.816;2023-06-24T01:07:52;17.60;99.90
22765;DHT22;11549;50.852;3.816;2023-06-24T01:10:24;17.60;99.90
22765;DHT22;11549;50.852;3.816;2023-06-24T01:12:53;17.60;99.90
22765;DHT22;11549;50.852;3.816;2023-06-24T01:15:21;17.50;99.90
22765;DHT22;11549;50.852;3.816;2023-06-24T01:17:57;17.50;99.90
22765;DHT22;11549;50.852;3.816;2023-06-24T01:20:29;17.50;99.90
22765;DHT22;11549;50.852;3.816;2023-06-24T01:23:24;17.40;99.90
22765;DHT22;11549;50.852;3.816;2023-06-24T01:26:24;17.40;99.90
22765;DHT22;11549;50.852;3.816;2023-06-24T01:29:16;17.40;99.90
22765;DHT22;11549;50.852;3.816;2023-06-24T01:31:53;17.30;99.90
22765;DHT22;11549;50.852;3.816;2023-06-24T01:34:28;17.40;99.90
22765;DHT22;11549;50.852;3.816;2023-06-24T01:37:07;17.30;99.90
22765;DHT22;11549;50.852;3.816;2023-06-24T01:39:44;17.30;99.90
22765;DHT22;11549;50.852;3.816;2023-06-24T01:42:15;17.20;99.90
22765;DHT22;11549;50.852;3.816;2023-06-24T01:44:45;17.20;99.90
22765;DHT22;11549;50.852;3.816;2023-06-24T01:47:19;17.20;99.90
22765;DHT22;11549;50.852;3.816;2023-06-24T01:49:53;17.10;99.90
22765;DHT22;11549;50.852;3.816;2023-06-24T01:52:23;17.10;99.90
22765;DHT22;11549;50.852;3.816;2023-06-24T01:54:52;17.10;99.90
22765;DHT22;11549;50.852;3.816;2023-06-24T01:57:23;17.00;99.90
22765;DHT22;11549;50.852;3.816;2023-06-24T01:59:53;17.00;99.90
22765;DHT22;11549;50.852;3.816;2023-06-24T02:02:25;16.90;99.90
22765;DHT22;11549;50.852;3.816;2023-06-24T02:04:56;16.90;99.90
22765;DHT22;11549;50.852;3.816;2023-06-24T02:07:26;16.90;99.90
22765;DHT22;11549;50.852;3.816;2023-06-24T02:09:58;16.90;99.90
22765;DHT22;11549;50.852;3.816;2023-06-24T02:12:28;16.90;99.90
22765;DHT22;11549;50.852;3.816;2023-06-24T02:14:57;16.90;99.90
22765;DHT22;11549;50.852;3.816;2023-06-24T02:17:27;16.80;99.90
22765;DHT22;11549;50.852;3.816;2023-06-24T02:19:57;16.80;99.90
22765;DHT22;11549;50.852;3.816;2023-06-24T02:22:27;16.80;99.90
22765;DHT22;11549;50.852;3.816;2023-06-24T02:24:57;16.80;99.90
22765;DHT22;11549;50.852;3.816;2023-06-24T02:27:25;16.80;99.90
22765;DHT22;11549;50.852;3.816;2023-06-24T02:29:54;16.70;99.90
22765;DHT22;11549;50.852;3.816;2023-06-24T02:32:23;16.80;99.90
22765;DHT22;11549;50.852;3.816;2023-06-24T02:34:53;16.80;99.90
22765;DHT22;11549;50.852;3.816;2023-06-24T02:37:21;16.70;99.90
22765;DHT22;11549;50.852;3.816;2023-06-24T02:39:50;16.70;99.90
22765;DHT22;11549;50.852;3.816;2023-06-24T02:42:18;16.70;99.90
22765;DHT22;11549;50.852;3.816;2023-06-24T02:44:46;16.70;99.90
22765;DHT22;11549;50.852;3.816;2023-06-24T02:47:16;16.70;99.90
22765;DHT22;11549;50.852;3.816;2023-06-24T02:49:45;16.70;99.90
22765;DHT22;11549;50.852;3.816;2023-06-24T02:52:16;16.60;99.90
22765;DHT22;11549;50.852;3.816;2023-06-24T02:54:45;16.60;99.90
22765;DHT22;11549;50.852;3.816;2023-06-24T02:57:13;16.60;99.90
22765;DHT22;11549;50.852;3.816;2023-06-24T02:59:42;16.60;99.90
22765;DHT22;11549;50.852;3.816;2023-06-24T03:02:11;16.60;99.90
22765;DHT22;11549;50.852;3.816;2023-06-24T03:04:40;16.60;99.90
22765;DHT22;11549;50.852;3.816;2023-06-24T03:07:09;16.50;99.90
22765;DHT22;11549;50.852;3.816;2023-06-24T03:09:40;16.50;99.90
22765;DHT22;11549;50.852;3.816;2023-06-24T03:12:09;16.50;99.90
22765;DHT22;11549;50.852;3.816;2023-06-24T03:14:39;16.50;99.90
22765;DHT22;11549;50.852;3.816;2023-06-24T03:17:07;16.50;99.90
22765;DHT22;11549;50.852;3.816;2023-06-24T03:19:35;16.40;99.90
22765;DHT22;11549;50.852;3.816;2023-06-24T03:22:04;16.40;99.90
22765;DHT22;11549;50.852;3.816;2023-06-24T03:24:32;16.40;99.90
22765;DHT22;11549;50.852;3.816;2023-06-24T03:27:02;16.40;99.90
22765;DHT22;11549;50.852;3.816;2023-06-24T03:29:31;16.40;99.90
22765;DHT22;11549;50.852;3.816;2023-06-24T03:31:59;16.40;99.90
22765;DHT22;11549;50.852;3.816;2023-06-24T03:34:27;16.40;99.90
22765;DHT22;11549;50.852;3.816;2023-06-24T03:36:56;16.30;99.90
22765;DHT22;11549;50.852;3.816;2023-06-24T03:39:25;16.30;99.90
22765;DHT22;11549;50.852;3.816;2023-06-24T03:41:53;16.30;99.90
22765;DHT22;11549;50.852;3.816;2023-06-24T03:44:23;16.30;99.90
22765;DHT22;11549;50.852;3.816;2023-06-24T03:46:51;16.40;99.90
22765;DHT22;11549;50.852;3.816;2023-06-24T03:49:20;16.40;99.90
22765;DHT22;11549;50.852;3.816;2023-06-24T03:51:48;16.50;99.90
22765;DHT22;11549;50.852;3.816;2023-06-24T03:54:17;16.70;99.90
22765;DHT22;11549;50.852;3.816;2023-06-24T03:56:45;16.90;99.90
22765;DHT22;11549;50.852;3.816;2023-06-24T03:59:14;17.10;99.90
22765;DHT22;11549;50.852;3.816;2023-06-24T04:01:44;17.30;99.90
22765;DHT22;11549;50.852;3.816;2023-06-24T04:04:12;17.50;99.90
22765;DHT22;11549;50.852;3.816;2023-06-24T04:06:41;17.70;99.90
22765;DHT22;11549;50.852;3.816;2023-06-24T04:09:09;17.70;99.90
22765;DHT22;11549;50.852;3.816;2023-06-24T04:11:37;17.70;99.90
22765;DHT22;11549;50.852;3.816;2023-06-24T04:14:06;17.60;99.90
22765;DHT22;11549;50.852;3.816;2023-06-24T04:16:36;17.50;99.90
22765;DHT22;11549;50.852;3.816;2023-06-24T04:19:06;17.60;99.90
22765;DHT22;11549;50.852;3.816;2023-06-24T04:21:34;17.80;99.90
22765;DHT22;11549;50.852;3.816;2023-06-24T04:24:04;18.10;99.90
22765;DHT22;11549;50.852;3.816;2023-06-24T04:26:32;18.40;99.90
22765;DHT22;11549;50.852;3.816;2023-06-24T04:29:01;18.60;99.90
22765;DHT22;11549;50.852;3.816;2023-06-24T04:31:29;18.80;99.90
22765;DHT22;11549;50.852;3.816;2023-06-24T04:33:58;19.00;99.90
22765;DHT22;11549;50.852;3.816;2023-06-24T04:36:27;19.20;99.90
22765;DHT22;11549;50.852;3.816;2023-06-24T04:38:56;19.40;99.90
22765;DHT22;11549;50.852;3.816;2023-06-24T04:41:24;19.60;99.90
22765;DHT22;11549;50.852;3.816;2023-06-24T04:43:52;19.80;99.90
22765;DHT22;11549;50.852;3.816;2023-06-24T04:46:20;20.00;99.90
22765;DHT22;11549;50.852;3.816;2023-06-24T04:48:49;20.20;99.90
22765;DHT22;11549;50.852;3.816;2023-06-24T04:51:18;20.40;99.90
22765;DHT22;11549;50.852;3.816;2023-06-24T04:53:47;20.60;99.90
22765;DHT22;11549;50.852;3.816;2023-06-24T04:56:15;20.80;99.90
22765;DHT22;11549;50.852;3.816;2023-06-24T04:58:44;21.00;99.90
22765;DHT22;11549;50.852;3.816;2023-06-24T05:01:12;21.10;99.90
22765;DHT22;11549;50.852;3.816;2023-06-24T05:03:40;21.30;99.90
22765;DHT22;11549;50.852;3.816;2023-06-24T05:06:09;21.50;99.90
22765;DHT22;11549;50.852;3.816;2023-06-24T05:08:37;21.60;99.90
22765;DHT22;11549;50.852;3.816;2023-06-24T05:11:07;21.60;99.90
22765;DHT22;11549;50.852;3.816;2023-06-24T05:13:36;21.80;99.90
22765;DHT22;11549;50.852;3.816;2023-06-24T05:16:05;21.80;99.90
22765;DHT22;11549;50.852;3.816;2023-06-24T05:18:33;21.80;99.90
22765;DHT22;11549;50.852;3.816;2023-06-24T05:21:02;22.00;99.90
22765;DHT22;11549;50.852;3.816;2023-06-24T05:23:30;22.10;99.90
22765;DHT22;11549;50.852;3.816;2023-06-24T05:25:58;22.20;99.90
22765;DHT22;11549;50.852;3.816;2023-06-24T05:28:28;22.30;99.90
22765;DHT22;11549;50.852;3.816;2023-06-24T05:30:57;22.50;99.90
22765;DHT22;11549;50.852;3.816;2023-06-24T05:33:25;22.70;99.90
22765;DHT22;11549;50.852;3.816;2023-06-24T05:35:54;22.80;99.90
22765;DHT22;11549;50.852;3.816;2023-06-24T05:38:22;22.90;99.90
22765;DHT22;11549;50.852;3.816;2023-06-24T05:40:50;23.10;99.90
22765;DHT22;11549;50.852;3.816;2023-06-24T05:43:19;23.20;99.90
22765;DHT22;11549;50.852;3.816;2023-06-24T05:45:48;23.30;99.90
22765;DHT22;11549;50.852;3.816;2023-06-24T05:48:16;23.50;99.90
22765;DHT22;11549;50.852;3.816;2023-06-24T05:50:45;23.60;99.90
22765;DHT22;11549;50.852;3.816;2023-06-24T05:53:13;23.80;99.90
22765;DHT22;11549;50.852;3.816;2023-06-24T05:55:41;23.90;99.90
22765;DHT22;11549;50.852;3.816;2023-06-24T05:58:10;24.10;99.90
22765;DHT22;11549;50.852;3.816;2023-06-24T06:00:38;24.30;99.90
22765;DHT22;11549;50.852;3.816;2023-06-24T06:03:08;24.40;99.90
22765;DHT22;11549;50.852;3.816;2023-06-24T06:05:36;24.60;99.90
22765;DHT22;11549;50.852;3.816;2023-06-24T06:08:06;24.70;99.90
22765;DHT22;11549;50.852;3.816;2023-06-24T06:10:34;24.80;99.90
22765;DHT22;11549;50.852;3.816;2023-06-24T06:13:03;24.90;99.90
22765;DHT22;11549;50.852;3.816;2023-06-24T06:15:32;25.00;99.90
22765;DHT22;11549;50.852;3.816;2023-06-24T06:18:00;25.10;99.90
22765;DHT22;11549;50.852;3.816;2023-06-24T06:20:30;25.30;99.90
22765;DHT22;11549;50.852;3.816;2023-06-24T06:22:59;25.60;99.90
22765;DHT22;11549;50.852;3.816;2023-06-24T06:25:27;25.80;99.90
22765;DHT22;11549;50.852;3.816;2023-06-24T06:27:55;25.90;99.90
22765;DHT22;11549;50.852;3.816;2023-06-24T06:30:25;26.10;99.90
22765;DHT22;11549;50.852;3.816;2023-06-24T06:32:53;26.10;99.90
22765;DHT22;11549;50.852;3.816;2023-06-24T06:35:21;26.30;99.90
22765;DHT22;11549;50.852;3.816;2023-06-24T06:37:51;26.50;99.90
22765;DHT22;11549;50.852;3.816;2023-06-24T06:40:23;26.50;99.90
22765;DHT22;11549;50.852;3.816;2023-06-24T06:42:51;26.60;99.90
22765;DHT22;11549;50.852;3.816;2023-06-24T06:45:21;26.70;99.90
22765;DHT22;11549;50.852;3.816;2023-06-24T06:47:50;26.90;99.90
22765;DHT22;11549;50.852;3.816;2023-06-24T06:50:18;26.90;99.90
22765;DHT22;11549;50.852;3.816;2023-06-24T06:52:46;27.00;99.90
22765;DHT22;11549;50.852;3.816;2023-06-24T06:55:16;27.10;99.90
22765;DHT22;11549;50.852;3.816;2023-06-24T06:57:44;27.20;99.90
22765;DHT22;11549;50.852;3.816;2023-06-24T07:00:13;27.20;99.90
22765;DHT22;11549;50.852;3.816;2023-06-24T07:02:41;27.30;99.90
22765;DHT22;11549;50.852;3.816;2023-06-24T07:05:10;27.40;99.90
22765;DHT22;11549;50.852;3.816;2023-06-24T07:07:38;27.60;99.90
22765;DHT22;11549;50.852;3.816;2023-06-24T07:10:07;27.50;99.90
22765;DHT22;11549;50.852;3.816;2023-06-24T07:12:36;27.30;99.90
22765;DHT22;11549;50.852;3.816;2023-06-24T07:15:05;27.50;99.90
22765;DHT22;11549;50.852;3.816;2023-06-24T07:17:35;27.50;99.90
22765;DHT22;11549;50.852;3.816;2023-06-24T07:20:05;27.70;99.90
22765;DHT22;11549;50.852;3.816;2023-06-24T07:22:33;27.70;99.90
22765;DHT22;11549;50.852;3.816;2023-06-24T07:25:02;27.80;99.90
22765;DHT22;11549;50.852;3.816;2023-06-24T07:27:30;28.00;99.90
22765;DHT22;11549;50.852;3.816;2023-06-24T07:30:00;28.10;99.90
22765;DHT22;11549;50.852;3.816;2023-06-24T07:32:28;28.20;99.90
22765;DHT22;11549;50.852;3.816;2023-06-24T07:34:57;28.20;99.90
22765;DHT22;11549;50.852;3.816;2023-06-24T07:37:25;28.30;99.90
22765;DHT22;11549;50.852;3.816;2023-06-24T07:39:53;28.40;99.90
22765;DHT22;11549;50.852;3.816;2023-06-24T07:42:21;28.60;99.90
22765;DHT22;11549;50.852;3.816;2023-06-24T07:44:50;28.90;99.90
22765;DHT22;11549;50.852;3.816;2023-06-24T07:47:19;29.00;99.60
22765;DHT22;11549;50.852;3.816;2023-06-24T07:49:48;29.10;99.40
22765;DHT22;11549;50.852;3.816;2023-06-24T07:52:16;28.80;99.90
22765;DHT22;11549;50.852;3.816;2023-06-24T07:54:44;29.00;99.30
22765;DHT22;11549;50.852;3.816;2023-06-24T07:57:13;29.30;99.40
22765;DHT22;11549;50.852;3.816;2023-06-24T07:59:42;29.40;99.90
22765;DHT22;11549;50.852;3.816;2023-06-24T08:02:10;29.50;98.20
22765;DHT22;11549;50.852;3.816;2023-06-24T08:04:40;29.60;98.30
22765;DHT22;11549;50.852;3.816;2023-06-24T08:07:09;29.90;97.50
22765;DHT22;11549;50.852;3.816;2023-06-24T08:09:37;30.00;96.70
22765;DHT22;11549;50.852;3.816;2023-06-24T08:12:06;30.20;95.60
22765;DHT22;11549;50.852;3.816;2023-06-24T08:14:35;30.30;95.50
22765;DHT22;11549;50.852;3.816;2023-06-24T08:17:03;30.40;95.80
22765;DHT22;11549;50.852;3.816;2023-06-24T08:19:31;29.90;94.70
22765;DHT22;11549;50.852;3.816;2023-06-24T08:22:01;30.00;97.40
22765;DHT22;11549;50.852;3.816;2023-06-24T08:24:30;30.10;96.10
22765;DHT22;11549;50.852;3.816;2023-06-24T08:26:59;30.40;94.10
22765;DHT22;11549;50.852;3.816;2023-06-24T08:29:27;30.80;93.40
22765;DHT22;11549;50.852;3.816;2023-06-24T08:31:55;31.00;93.40
22765;DHT22;11549;50.852;3.816;2023-06-24T08:34:23;31.10;92.00
22765;DHT22;11549;50.852;3.816;2023-06-24T08:36:53;31.00;93.00
22765;DHT22;11549;50.852;3.816;2023-06-24T08:39:23;31.00;94.00
22765;DHT22;11549;50.852;3.816;2023-06-24T08:41:51;30.90;95.50
22765;DHT22;11549;50.852;3.816;2023-06-24T08:44:19;30.90;92.40
22765;DHT22;11549;50.852;3.816;2023-06-24T08:46:50;31.20;91.70
22765;DHT22;11549;50.852;3.816;2023-06-24T08:49:27;31.10;93.60
22765;DHT22;11549;50.852;3.816;2023-06-24T08:52:00;31.00;90.10
22765;DHT22;11549;50.852;3.816;2023-06-24T08:54:35;31.20;92.10
22765;DHT22;11549;50.852;3.816;2023-06-24T08:57:03;31.00;90.30
22765;DHT22;11549;50.852;3.816;2023-06-24T08:59:34;31.20;90.90
22765;DHT22;11549;50.852;3.816;2023-06-24T09:02:03;31.50;90.90
22765;DHT22;11549;50.852;3.816;2023-06-24T09:04:32;31.80;89.50
22765;DHT22;11549;50.852;3.816;2023-06-24T09:07:01;31.50;90.30
22765;DHT22;11549;50.852;3.816;2023-06-24T09:09:42;31.40;91.50
22765;DHT22;11549;50.852;3.816;2023-06-24T09:12:13;31.90;90.50
22765;DHT22;11549;50.852;3.816;2023-06-24T09:14:47;32.10;91.00
22765;DHT22;11549;50.852;3.816;2023-06-24T09:17:16;32.70;86.00
22765;DHT22;11549;50.852;3.816;2023-06-24T09:19:50;32.80;87.90
22765;DHT22;11549;50.852;3.816;2023-06-24T09:22:19;32.90;80.70
22765;DHT22;11549;50.852;3.816;2023-06-24T09:24:49;32.90;82.70
22765;DHT22;11549;50.852;3.816;2023-06-24T09:27:18;32.80;85.00
22765;DHT22;11549;50.852;3.816;2023-06-24T09:29:49;32.50;84.80
22765;DHT22;11549;50.852;3.816;2023-06-24T09:32:17;32.30;86.40
22765;DHT22;11549;50.852;3.816;2023-06-24T09:34:45;32.50;84.80
22765;DHT22;11549;50.852;3.816;2023-06-24T09:37:21;32.80;81.60
22765;DHT22;11549;50.852;3.816;2023-06-24T09:39:51;33.10;79.00
22765;DHT22;11549;50.852;3.816;2023-06-24T09:42:21;33.10;80.60
22765;DHT22;11549;50.852;3.816;2023-06-24T09:44:54;33.10;79.30
22765;DHT22;11549;50.852;3.816;2023-06-24T09:47:23;33.40;80.70
22765;DHT22;11549;50.852;3.816;2023-06-24T09:49:53;33.20;80.20
22765;DHT22;11549;50.852;3.816;2023-06-24T09:52:22;33.40;74.10
22765;DHT22;11549;50.852;3.816;2023-06-24T09:54:55;33.50;72.70
22765;DHT22;11549;50.852;3.816;2023-06-24T09:57:28;33.40;75.00
22765;DHT22;11549;50.852;3.816;2023-06-24T09:59:58;33.00;76.00
22765;DHT22;11549;50.852;3.816;2023-06-24T10:02:28;32.80;73.40
22765;DHT22;11549;50.852;3.816;2023-06-24T10:04:59;32.80;76.00
22765;DHT22;11549;50.852;3.816;2023-06-24T10:07:28;33.10;70.60
22765;DHT22;11549;50.852;3.816;2023-06-24T10:09:58;33.30;69.50
22765;DHT22;11549;50.852;3.816;2023-06-24T10:12:26;33.60;70.80
22765;DHT22;11549;50.852;3.816;2023-06-24T10:14:55;33.80;68.50
22765;DHT22;11549;50.852;3.816;2023-06-24T10:17:23;33.60;68.40
22765;DHT22;11549;50.852;3.816;2023-06-24T10:19:53;33.70;69.40
22765;DHT22;11549;50.852;3.816;2023-06-24T10:22:22;33.50;72.30
22765;DHT22;11549;50.852;3.816;2023-06-24T10:24:54;33.50;71.20
22765;DHT22;11549;50.852;3.816;2023-06-24T10:27:25;33.70;67.70
22765;DHT22;11549;50.852;3.816;2023-06-24T10:30:02;33.90;66.50
22765;DHT22;11549;50.852;3.816;2023-06-24T10:32:40;33.50;71.00
22765;DHT22;11549;50.852;3.816;2023-06-24T10:35:22;33.70;67.80
22765;DHT22;11549;50.852;3.816;2023-06-24T10:37:55;33.50;69.30
22765;DHT22;11549;50.852;3.816;2023-06-24T10:40:37;33.60;71.40
22765;DHT22;11549;50.852;3.816;2023-06-24T10:43:29;33.60;70.40
22765;DHT22;11549;50.852;3.816;2023-06-24T10:45:58;33.50;68.70
22765;DHT22;11549;50.852;3.816;2023-06-24T10:48:26;33.80;67.30
22765;DHT22;11549;50.852;3.816;2023-06-24T10:50:55;33.90;66.80
22765;DHT22;11549;50.852;3.816;2023-06-24T10:53:23;34.00;72.30
22765;DHT22;11549;50.852;3.816;2023-06-24T10:55:51;33.90;70.70
22765;DHT22;11549;50.852;3.816;2023-06-24T10:58:20;33.80;72.10
22765;DHT22;11549;50.852;3.816;2023-06-24T11:00:50;33.70;72.40
22765;DHT22;11549;50.852;3.816;2023-06-24T11:03:18;33.90;70.60
22765;DHT22;11549;50.852;3.816;2023-06-24T11:05:48;34.00;69.10
22765;DHT22;11549;50.852;3.816;2023-06-24T11:08:17;34.10;67.20
22765;DHT22;11549;50.852;3.816;2023-06-24T11:10:46;34.10;62.20
22765;DHT22;11549;50.852;3.816;2023-06-24T11:13:14;34.00;67.20
22765;DHT22;11549;50.852;3.816;2023-06-24T11:15:43;34.10;65.80
22765;DHT22;11549;50.852;3.816;2023-06-24T11:18:13;34.00;61.60
22765;DHT22;11549;50.852;3.816;2023-06-24T11:20:41;34.00;64.60
22765;DHT22;11549;50.852;3.816;2023-06-24T11:23:10;34.10;65.00
22765;DHT22;11549;50.852;3.816;2023-06-24T11:25:40;34.30;61.80
22765;DHT22;11549;50.852;3.816;2023-06-24T11:28:16;33.90;64.10
22765;DHT22;11549;50.852;3.816;2023-06-24T11:30:49;34.20;62.20
22765;DHT22;11549;50.852;3.816;2023-06-24T11:33:27;34.30;61.80
22765;DHT22;11549;50.852;3.816;2023-06-24T11:35:56;34.00;64.80
22765;DHT22;11549;50.852;3.816;2023-06-24T11:38:24;33.90;62.00
22765;DHT22;11549;50.852;3.816;2023-06-24T11:40:59;33.90;66.20
22765;DHT22;11549;50.852;3.816;2023-06-24T11:43:27;33.90;64.90
22765;DHT22;11549;50.852;3.816;2023-06-24T11:45:56;34.20;62.90
22765;DHT22;11549;50.852;3.816;2023-06-24T11:48:28;34.10;64.70
22765;DHT22;11549;50.852;3.816;2023-06-24T11:50:57;33.90;62.90
22765;DHT22;11549;50.852;3.816;2023-06-24T11:53:29;34.20;65.80
22765;DHT22;11549;50.852;3.816;2023-06-24T11:55:58;34.30;62.20
22765;DHT22;11549;50.852;3.816;2023-06-24T11:58:27;34.00;64.50
22765;DHT22;11549;50.852;3.816;2023-06-24T12:00:56;33.90;63.60
22765;DHT22;11549;50.852;3.816;2023-06-24T12:03:24;33.80;69.30
22765;DHT22;11549;50.852;3.816;2023-06-24T12:05:54;33.90;70.10
22765;DHT22;11549;50.852;3.816;2023-06-24T12:08:23;34.10;63.20
22765;DHT22;11549;50.852;3.816;2023-06-24T12:10:53;34.40;62.80
22765;DHT22;11549;50.852;3.816;2023-06-24T12:13:22;34.20;65.40
22765;DHT22;11549;50.852;3.816;2023-06-24T12:15:50;33.90;64.80
22765;DHT22;11549;50.852;3.816;2023-06-24T12:18:19;33.80;63.40
22765;DHT22;11549;50.852;3.816;2023-06-24T12:20:47;33.70;63.80
22765;DHT22;11549;50.852;3.816;2023-06-24T12:23:17;33.70;64.20
22765;DHT22;11549;50.852;3.816;2023-06-24T12:25:45;33.80;64.20
22765;DHT22;11549;50.852;3.816;2023-06-24T12:28:13;33.90;66.70
22765;DHT22;11549;50.852;3.816;2023-06-24T12:30:42;34.10;65.00
22765;DHT22;11549;50.852;3.816;2023-06-24T12:33:10;34.30;61.50
22765;DHT22;11549;50.852;3.816;2023-06-24T12:35:42;34.10;62.30
22765;DHT22;11549;50.852;3.816;2023-06-24T12:38:10;33.90;64.00
22765;DHT22;11549;50.852;3.816;2023-06-24T12:40:40;33.80;64.50
22765;DHT22;11549;50.852;3.816;2023-06-24T12:43:08;33.60;67.60
22765;DHT22;11549;50.852;3.816;2023-06-24T12:45:37;33.80;66.90
22765;DHT22;11549;50.852;3.816;2023-06-24T12:48:05;33.80;63.80
22765;DHT22;11549;50.852;3.816;2023-06-24T12:50:34;33.70;66.10
22765;DHT22;11549;50.852;3.816;2023-06-24T12:53:02;33.60;66.80
22765;DHT22;11549;50.852;3.816;2023-06-24T12:55:31;33.80;65.90
22765;DHT22;11549;50.852;3.816;2023-06-24T12:58:01;33.80;65.60
22765;DHT22;11549;50.852;3.816;2023-06-24T13:00:29;33.60;67.90
22765;DHT22;11549;50.852;3.816;2023-06-24T13:02:58;33.90;65.40
22765;DHT22;11549;50.852;3.816;2023-06-24T13:05:26;33.90;65.90
22765;DHT22;11549;50.852;3.816;2023-06-24T13:07:54;33.70;65.40
22765;DHT22;11549;50.852;3.816;2023-06-24T13:10:23;34.00;66.10
22765;DHT22;11549;50.852;3.816;2023-06-24T13:12:51;34.10;67.10
22765;DHT22;11549;50.852;3.816;2023-06-24T13:15:21;34.20;64.00
22765;DHT22;11549;50.852;3.816;2023-06-24T13:17:51;34.20;66.40
22765;DHT22;11549;50.852;3.816;2023-06-24T13:20:20;34.30;67.40
22765;DHT22;11549;50.852;3.816;2023-06-24T13:22:48;34.30;64.40
22765;DHT22;11549;50.852;3.816;2023-06-24T13:25:16;34.40;62.40
22765;DHT22;11549;50.852;3.816;2023-06-24T13:27:45;34.50;61.40
22765;DHT22;11549;50.852;3.816;2023-06-24T13:30:14;34.30;67.50
22765;DHT22;11549;50.852;3.816;2023-06-24T13:32:44;34.30;60.70
22765;DHT22;11549;50.852;3.816;2023-06-24T13:35:13;34.30;66.10
22765;DHT22;11549;50.852;3.816;2023-06-24T13:37:41;34.50;59.90
22765;DHT22;11549;50.852;3.816;2023-06-24T13:40:11;34.30;61.50
22765;DHT22;11549;50.852;3.816;2023-06-24T13:42:39;34.40;58.80
22765;DHT22;11549;50.852;3.816;2023-06-24T13:45:08;34.50;59.10
22765;DHT22;11549;50.852;3.816;2023-06-24T13:47:37;34.10;59.10
22765;DHT22;11549;50.852;3.816;2023-06-24T13:50:07;34.20;60.00
22765;DHT22;11549;50.852;3.816;2023-06-24T13:52:36;34.20;60.20
22765;DHT22;11549;50.852;3.816;2023-06-24T13:55:05;34.20;58.20
22765;DHT22;11549;50.852;3.816;2023-06-24T13:57:34;34.10;57.00
22765;DHT22;11549;50.852;3.816;2023-06-24T14:00:02;34.00;62.90
22765;DHT22;11549;50.852;3.816;2023-06-24T14:02:31;34.00;58.80
22765;DHT22;11549;50.852;3.816;2023-06-24T14:04:59;33.90;57.10
22765;DHT22;11549;50.852;3.816;2023-06-24T14:07:29;33.60;58.10
22765;DHT22;11549;50.852;3.816;2023-06-24T14:09:57;33.10;59.80
22765;DHT22;11549;50.852;3.816;2023-06-24T14:12:26;32.90;61.00
22765;DHT22;11549;50.852;3.816;2023-06-24T14:14:54;32.90;63.30
22765;DHT22;11549;50.852;3.816;2023-06-24T14:17:22;33.00;63.20
22765;DHT22;11549;50.852;3.816;2023-06-24T14:19:51;33.10;63.10
22765;DHT22;11549;50.852;3.816;2023-06-24T14:22:19;33.20;65.40
22765;DHT22;11549;50.852;3.816;2023-06-24T14:24:50;33.20;62.20
22765;DHT22;11549;50.852;3.816;2023-06-24T14:27:19;33.20;64.40
22765;DHT22;11549;50.852;3.816;2023-06-24T14:29:47;33.40;64.20
22765;DHT22;11549;50.852;3.816;2023-06-24T14:32:16;33.40;62.70
22765;DHT22;11549;50.852;3.816;2023-06-24T14:34:44;33.20;63.70
22765;DHT22;11549;50.852;3.816;2023-06-24T14:37:12;33.40;64.10
22765;DHT22;11549;50.852;3.816;2023-06-24T14:39:40;33.40;61.70
22765;DHT22;11549;50.852;3.816;2023-06-24T14:42:10;33.50;61.00
22765;DHT22;11549;50.852;3.816;2023-06-24T14:44:38;33.60;58.00
22765;DHT22;11549;50.852;3.816;2023-06-24T14:47:07;33.60;57.40
22765;DHT22;11549;50.852;3.816;2023-06-24T14:49:35;33.50;61.60
22765;DHT22;11549;50.852;3.816;2023-06-24T14:52:03;33.40;63.00
22765;DHT22;11549;50.852;3.816;2023-06-24T14:54:32;33.30;61.40
22765;DHT22;11549;50.852;3.816;2023-06-24T14:57:00;33.40;60.60
22765;DHT22;11549;50.852;3.816;2023-06-24T14:59:30;33.20;59.30
22765;DHT22;11549;50.852;3.816;2023-06-24T15:01:58;33.20;59.90
22765;DHT22;11549;50.852;3.816;2023-06-24T15:04:26;33.20;58.70
22765;DHT22;11549;50.852;3.816;2023-06-24T15:06:54;32.80;58.60
22765;DHT22;11549;50.852;3.816;2023-06-24T15:09:23;32.90;61.70
22765;DHT22;11549;50.852;3.816;2023-06-24T15:11:52;33.00;59.30
22765;DHT22;11549;50.852;3.816;2023-06-24T15:14:20;33.10;59.80
22765;DHT22;11549;50.852;3.816;2023-06-24T15:16:49;33.00;60.10
22765;DHT22;11549;50.852;3.816;2023-06-24T15:19:20;33.20;60.40
22765;DHT22;11549;50.852;3.816;2023-06-24T15:21:48;33.30;59.30
22765;DHT22;11549;50.852;3.816;2023-06-24T15:24:17;33.10;59.30
22765;DHT22;11549;50.852;3.816;2023-06-24T15:26:45;32.80;59.30
22765;DHT22;11549;50.852;3.816;2023-06-24T15:29:13;32.60;58.70
22765;DHT22;11549;50.852;3.816;2023-06-24T15:31:42;32.60;59.70
22765;DHT22;11549;50.852;3.816;2023-06-24T15:34:11;32.60;59.90
22765;DHT22;11549;50.852;3.816;2023-06-24T15:36:40;32.50;58.20
22765;DHT22;11549;50.852;3.816;2023-06-24T15:39:09;32.50;58.80
22765;DHT22;11549;50.852;3.816;2023-06-24T15:41:37;32.50;58.70
22765;DHT22;11549;50.852;3.816;2023-06-24T15:44:06;32.60;62.20